sensor_id;sensor_type;location;lat;lon;timestamp;P1;durP1;ratioP1;P2;durP2;ratioP2
1685;SDS011;840;47.980;7.830;2023-08-20T00:01:00;9.57;;;5.30;;
1685;SDS011;840;47.980;7.830;2023-08-20T00:03:29;8.10;;;6.10;;
1685;SDS011;840;47.980;7.830;2023-08-20T00:05:56;5.70;;;5.37;;
1685;SDS011;840;47.980;7.830;2023-08-20T00:08:23;7.40;;;6.70;;
1685;SDS011;840;47.980;7.830;2023-08-20T00:10:50;7.03;;;6.50;;
1685;SDS011;840;47.980;7.830;2023-08-20T00:13:16;7.00;;;6.50;;
1685;SDS011;840;47.980;7.830;2023-08-20T00:15:43;6.87;;;6.27;;
1685;SDS011;840;47.980;7.830;2023-08-20T00:18:12;7.80;;;7.10;;
1685;SDS011;840;47.980;7.830;2023-08-20T00:20:40;7.03;;;6.43;;
1685;SDS011;840;47.980;7.830;2023-08-20T00:23:07;7.47;;;6.87;;
1685;SDS011;840;47.980;7.830;2023-08-20T00:25:35;8.87;;;6.93;;
1685;SDS011;840;47.980;7.830;2023-08-20T00:28:02;7.40;;;6.80;;
1685;SDS011;840;47.980;7.830;2023-08-20T00:30:29;8.87;;;6.10;;
1685;SDS011;840;47.980;7.830;2023-08-20T00:32:56;6.67;;;6.00;;
1685;SDS011;840;47.980;7.830;2023-08-20T00:35:24;6.00;;;5.57;;
1685;SDS011;840;47.980;7.830;2023-08-20T00:37:51;6.10;;;5.60;;
1685;SDS011;840;47.980;7.830;2023-08-20T00:40:18;8.80;;;7.07;;
1685;SDS011;840;47.980;7.830;2023-08-20T00:42:44;6.93;;;6.30;;
1685;SDS011;840;47.980;7.830;2023-08-20T00:45:11;6.30;;;5.80;;
1685;SDS011;840;47.980;7.830;2023-08-20T00:47:38;6.77;;;6.17;;
1685;SDS011;840;47.980;7.830;2023-08-20T00:50:06;5.80;;;5.40;;
1685;SDS011;840;47.980;7.830;2023-08-20T00:52:37;9.83;;;5.57;;
1685;SDS011;840;47.980;7.830;2023-08-20T00:55:05;6.37;;;5.80;;
1685;SDS011;840;47.980;7.830;2023-08-20T00:57:34;7.20;;;6.60;;
1685;SDS011;840;47.980;7.830;2023-08-20T01:00:01;7.60;;;6.87;;
1685;SDS011;840;47.980;7.830;2023-08-20T01:02:32;6.20;;;5.70;;
1685;SDS011;840;47.980;7.830;2023-08-20T01:04:59;6.17;;;5.30;;
1685;SDS011;840;47.980;7.830;2023-08-20T01:07:31;8.30;;;7.53;;
1685;SDS011;840;47.980;7.830;2023-08-20T01:10:08;6.77;;;6.27;;
1685;SDS011;840;47.980;7.830;2023-08-20T01:12:44;6.90;;;6.30;;
1685;SDS011;840;47.980;7.830;2023-08-20T01:15:12;8.63;;;6.97;;
1685;SDS011;840;47.980;7.830;2023-08-20T01:17:40;6.57;;;6.00;;
1685;SDS011;840;47.980;7.830;2023-08-20T01:20:07;7.30;;;6.80;;
1685;SDS011;840;47.980;7.830;2023-08-20T01:22:45;6.20;;;5.80;;
1685;SDS011;840;47.980;7.830;2023-08-20T01:25:24;7.30;;;6.13;;
1685;SDS011;840;47.980;7.830;2023-08-20T01:28:14;7.23;;;6.53;;
1685;SDS011;840;47.980;7.830;2023-08-20T01:30:49;7.00;;;5.80;;
1685;SDS011;840;47.980;7.830;2023-08-20T01:33:17;6.60;;;6.00;;
1685;SDS011;840;47.980;7.830;2023-08-20T01:35:45;6.87;;;6.27;;
1685;SDS011;840;47.980;7.830;2023-08-20T01:38:12;6.47;;;5.87;;
1685;SDS011;840;47.980;7.830;2023-08-20T01:40:39;7.70;;;5.87;;
1685;SDS011;840;47.980;7.830;2023-08-20T01:43:05;7.10;;;6.50;;
1685;SDS011;840;47.980;7.830;2023-08-20T01:45:33;6.40;;;5.80;;
1685;SDS011;840;47.980;7.830;2023-08-20T01:48:00;6.83;;;6.30;;
1685;SDS011;840;47.980;7.830;2023-08-20T01:50:28;6.30;;;5.77;;
1685;SDS011;840;47.980;7.830;2023-08-20T01:52:55;6.67;;;6.07;;
1685;SDS011;840;47.980;7.830;2023-08-20T01:55:22;5.53;;;5.13;;
1685;SDS011;840;47.980;7.830;2023-08-20T01:57:49;7.00;;;6.33;;
1685;SDS011;840;47.980;7.830;2023-08-20T02:00:15;5.17;;;4.70;;
1685;SDS011;840;47.980;7.830;2023-08-20T02:02:44;7.07;;;6.47;;
1685;SDS011;840;47.980;7.830;2023-08-20T02:05:10;6.27;;;5.77;;
1685;SDS011;840;47.980;7.830;2023-08-20T02:07:37;6.00;;;5.50;;
1685;SDS011;840;47.980;7.830;2023-08-20T02:10:04;6.40;;;5.77;;
1685;SDS011;840;47.980;7.830;2023-08-20T02:12:32;6.13;;;5.63;;
1685;SDS011;840;47.980;7.830;2023-08-20T02:14:58;6.17;;;5.57;;
1685;SDS011;840;47.980;7.830;2023-08-20T02:17:25;6.10;;;5.50;;
1685;SDS011;840;47.980;7.830;2023-08-20T02:19:53;7.33;;;6.73;;
1685;SDS011;840;47.980;7.830;2023-08-20T02:22:20;8.37;;;7.57;;
1685;SDS011;840;47.980;7.830;2023-08-20T02:24:47;6.40;;;5.90;;
1685;SDS011;840;47.980;7.830;2023-08-20T02:27:13;9.37;;;8.43;;
1685;SDS011;840;47.980;7.830;2023-08-20T02:29:40;7.87;;;7.17;;
1685;SDS011;840;47.980;7.830;2023-08-20T02:32:07;7.70;;;7.00;;
1685;SDS011;840;47.980;7.830;2023-08-20T02:34:33;7.10;;;6.40;;
1685;SDS011;840;47.980;7.830;2023-08-20T02:37:01;7.60;;;6.67;;
1685;SDS011;840;47.980;7.830;2023-08-20T02:39:28;8.07;;;6.40;;
1685;SDS011;840;47.980;7.830;2023-08-20T02:41:56;8.80;;;5.83;;
1685;SDS011;840;47.980;7.830;2023-08-20T02:44:23;5.50;;;5.03;;
1685;SDS011;840;47.980;7.830;2023-08-20T02:46:49;6.53;;;5.93;;
1685;SDS011;840;47.980;7.830;2023-08-20T02:49:16;6.50;;;6.00;;
1685;SDS011;840;47.980;7.830;2023-08-20T02:51:43;10.57;;;6.20;;
1685;SDS011;840;47.980;7.830;2023-08-20T02:54:11;6.70;;;6.17;;
1685;SDS011;840;47.980;7.830;2023-08-20T02:56:38;7.30;;;6.63;;
1685;SDS011;840;47.980;7.830;2023-08-20T02:59:04;6.40;;;5.60;;
1685;SDS011;840;47.980;7.830;2023-08-20T03:01:31;6.50;;;5.97;;
1685;SDS011;840;47.980;7.830;2023-08-20T03:03:58;6.93;;;5.40;;
1685;SDS011;840;47.980;7.830;2023-08-20T03:06:24;9.90;;;6.17;;
1685;SDS011;840;47.980;7.830;2023-08-20T03:08:51;7.00;;;5.90;;
1685;SDS011;840;47.980;7.830;2023-08-20T03:11:19;6.83;;;6.13;;
1685;SDS011;840;47.980;7.830;2023-08-20T03:13:46;6.80;;;6.00;;
1685;SDS011;840;47.980;7.830;2023-08-20T03:16:13;8.33;;;5.57;;
1685;SDS011;840;47.980;7.830;2023-08-20T03:18:39;8.40;;;6.00;;
1685;SDS011;840;47.980;7.830;2023-08-20T03:21:06;6.17;;;5.67;;
1685;SDS011;840;47.980;7.830;2023-08-20T03:23:33;6.83;;;6.17;;
1685;SDS011;840;47.980;7.830;2023-08-20T03:25:59;5.80;;;4.80;;
1685;SDS011;840;47.980;7.830;2023-08-20T03:28:28;6.67;;;6.00;;
1685;SDS011;840;47.980;7.830;2023-08-20T03:30:58;5.67;;;5.07;;
1685;SDS011;840;47.980;7.830;2023-08-20T03:33:39;9.80;;;5.57;;
1685;SDS011;840;47.980;7.830;2023-08-20T03:36:06;6.77;;;5.63;;
1685;SDS011;840;47.980;7.830;2023-08-20T03:38:32;8.33;;;5.90;;
1685;SDS011;840;47.980;7.830;2023-08-20T03:40:59;6.30;;;5.80;;
1685;SDS011;840;47.980;7.830;2023-08-20T03:43:26;7.13;;;6.43;;
1685;SDS011;840;47.980;7.830;2023-08-20T03:45:54;7.43;;;6.60;;
1685;SDS011;840;47.980;7.830;2023-08-20T03:48:21;7.90;;;5.90;;
1685;SDS011;840;47.980;7.830;2023-08-20T03:50:47;7.10;;;5.30;;
1685;SDS011;840;47.980;7.830;2023-08-20T03:53:14;7.70;;;6.50;;
1685;SDS011;840;47.980;7.830;2023-08-20T03:55:41;7.33;;;6.63;;
1685;SDS011;840;47.980;7.830;2023-08-20T03:58:13;6.63;;;6.03;;
1685;SDS011;840;47.980;7.830;2023-08-20T04:00:39;7.23;;;6.37;;
1685;SDS011;840;47.980;7.830;2023-08-20T04:03:07;6.40;;;5.80;;
1685;SDS011;840;47.980;7.830;2023-08-20T04:05:35;9.60;;;5.83;;
1685;SDS011;840;47.980;7.830;2023-08-20T04:08:01;5.90;;;5.40;;
1685;SDS011;840;47.980;7.830;2023-08-20T04:10:28;6.57;;;6.00;;
1685;SDS011;840;47.980;7.830;2023-08-20T04:12:55;8.67;;;5.90;;
1685;SDS011;840;47.980;7.830;2023-08-20T04:15:20;7.20;;;6.70;;
1685;SDS011;840;47.980;7.830;2023-08-20T04:17:47;6.70;;;6.20;;
1685;SDS011;840;47.980;7.830;2023-08-20T04:20:16;7.00;;;6.30;;
1685;SDS011;840;47.980;7.830;2023-08-20T04:22:42;5.63;;;5.10;;
1685;SDS011;840;47.980;7.830;2023-08-20T04:25:09;7.13;;;6.43;;
1685;SDS011;840;47.980;7.830;2023-08-20T04:27:36;7.10;;;6.37;;
1685;SDS011;840;47.980;7.830;2023-08-20T04:30:03;9.27;;;6.50;;
1685;SDS011;840;47.980;7.830;2023-08-20T04:32:31;8.10;;;6.00;;
1685;SDS011;840;47.980;7.830;2023-08-20T04:34:58;9.83;;;6.80;;
1685;SDS011;840;47.980;7.830;2023-08-20T04:37:26;6.33;;;5.93;;
1685;SDS011;840;47.980;7.830;2023-08-20T04:39:53;9.93;;;5.83;;
1685;SDS011;840;47.980;7.830;2023-08-20T04:42:20;7.00;;;6.30;;
1685;SDS011;840;47.980;7.830;2023-08-20T04:44:47;7.30;;;6.67;;
1685;SDS011;840;47.980;7.830;2023-08-20T04:47:13;5.60;;;5.17;;
1685;SDS011;840;47.980;7.830;2023-08-20T04:49:40;6.57;;;6.07;;
1685;SDS011;840;47.980;7.830;2023-08-20T04:52:07;5.97;;;5.57;;
1685;SDS011;840;47.980;7.830;2023-08-20T04:54:35;6.53;;;5.90;;
1685;SDS011;840;47.980;7.830;2023-08-20T04:57:02;6.30;;;5.80;;
1685;SDS011;840;47.980;7.830;2023-08-20T04:59:29;6.60;;;6.00;;
1685;SDS011;840;47.980;7.830;2023-08-20T05:01:55;16.13;;;7.40;;
1685;SDS011;840;47.980;7.830;2023-08-20T05:04:22;7.37;;;6.77;;
1685;SDS011;840;47.980;7.830;2023-08-20T05:06:49;9.50;;;6.90;;
1685;SDS011;840;47.980;7.830;2023-08-20T05:09:16;8.10;;;7.10;;
1685;SDS011;840;47.980;7.830;2023-08-20T05:11:44;7.87;;;6.37;;
1685;SDS011;840;47.980;7.830;2023-08-20T05:14:11;6.57;;;5.87;;
1685;SDS011;840;47.980;7.830;2023-08-20T05:16:37;7.23;;;6.53;;
1685;SDS011;840;47.980;7.830;2023-08-20T05:19:04;9.10;;;6.60;;
1685;SDS011;840;47.980;7.830;2023-08-20T05:21:31;8.97;;;6.10;;
1685;SDS011;840;47.980;7.830;2023-08-20T05:23:57;7.00;;;5.93;;
1685;SDS011;840;47.980;7.830;2023-08-20T05:26:24;6.37;;;5.87;;
1685;SDS011;840;47.980;7.830;2023-08-20T05:28:52;6.83;;;6.13;;
1685;SDS011;840;47.980;7.830;2023-08-20T05:31:19;9.73;;;7.37;;
1685;SDS011;840;47.980;7.830;2023-08-20T05:33:46;7.00;;;6.50;;
1685;SDS011;840;47.980;7.830;2023-08-20T05:36:13;6.50;;;5.90;;
1685;SDS011;840;47.980;7.830;2023-08-20T05:38:40;10.70;;;7.20;;
1685;SDS011;840;47.980;7.830;2023-08-20T05:41:07;7.37;;;6.13;;
1685;SDS011;840;47.980;7.830;2023-08-20T05:43:35;6.60;;;6.10;;
1685;SDS011;840;47.980;7.830;2023-08-20T05:46:03;9.93;;;5.97;;
1685;SDS011;840;47.980;7.830;2023-08-20T05:48:30;9.80;;;6.20;;
1685;SDS011;840;47.980;7.830;2023-08-20T05:50:57;7.60;;;7.00;;
1685;SDS011;840;47.980;7.830;2023-08-20T05:53:23;9.67;;;6.50;;
1685;SDS011;840;47.980;7.830;2023-08-20T05:55:50;6.90;;;6.27;;
1685;SDS011;840;47.980;7.830;2023-08-20T05:58:17;6.63;;;6.03;;
1685;SDS011;840;47.980;7.830;2023-08-20T06:00:43;8.80;;;6.20;;
1685;SDS011;840;47.980;7.830;2023-08-20T06:03:11;7.20;;;6.10;;
1685;SDS011;840;47.980;7.830;2023-08-20T06:05:38;7.20;;;6.70;;
1685;SDS011;840;47.980;7.830;2023-08-20T06:08:05;6.90;;;6.33;;
1685;SDS011;840;47.980;7.830;2023-08-20T06:10:32;6.30;;;5.80;;
1685;SDS011;840;47.980;7.830;2023-08-20T06:12:59;6.93;;;6.33;;
1685;SDS011;840;47.980;7.830;2023-08-20T06:15:25;7.57;;;6.77;;
1685;SDS011;840;47.980;7.830;2023-08-20T06:17:52;6.83;;;6.23;;
1685;SDS011;840;47.980;7.830;2023-08-20T06:20:20;5.90;;;5.40;;
1685;SDS011;840;47.980;7.830;2023-08-20T06:22:47;6.80;;;6.10;;
1685;SDS011;840;47.980;7.830;2023-08-20T06:25:14;7.67;;;7.03;;
1685;SDS011;840;47.980;7.830;2023-08-20T06:27:41;6.43;;;5.83;;
1685;SDS011;840;47.980;7.830;2023-08-20T06:30:08;8.63;;;7.80;;
1685;SDS011;840;47.980;7.830;2023-08-20T06:32:35;7.77;;;6.90;;
1685;SDS011;840;47.980;7.830;2023-08-20T06:35:02;6.13;;;5.60;;
1685;SDS011;840;47.980;7.830;2023-08-20T06:37:30;6.93;;;6.10;;
1685;SDS011;840;47.980;7.830;2023-08-20T06:39:57;6.90;;;6.30;;
1685;SDS011;840;47.980;7.830;2023-08-20T06:42:23;6.13;;;5.63;;
1685;SDS011;840;47.980;7.830;2023-08-20T06:44:50;6.80;;;6.10;;
1685;SDS011;840;47.980;7.830;2023-08-20T06:47:17;7.97;;;6.27;;
1685;SDS011;840;47.980;7.830;2023-08-20T06:49:43;6.90;;;6.33;;
1685;SDS011;840;47.980;7.830;2023-08-20T06:52:10;6.50;;;6.00;;
1685;SDS011;840;47.980;7.830;2023-08-20T06:54:38;7.70;;;7.00;;
1685;SDS011;840;47.980;7.830;2023-08-20T06:57:05;7.27;;;6.67;;
1685;SDS011;840;47.980;7.830;2023-08-20T06:59:32;7.03;;;6.30;;
1685;SDS011;840;47.980;7.830;2023-08-20T07:01:58;7.03;;;6.43;;
1685;SDS011;840;47.980;7.830;2023-08-20T07:04:25;8.13;;;6.90;;
1685;SDS011;840;47.980;7.830;2023-08-20T07:06:52;6.90;;;6.27;;
1685;SDS011;840;47.980;7.830;2023-08-20T07:09:18;9.70;;;6.63;;
1685;SDS011;840;47.980;7.830;2023-08-20T07:11:46;11.03;;;7.80;;
1685;SDS011;840;47.980;7.830;2023-08-20T07:14:13;7.73;;;7.13;;
1685;SDS011;840;47.980;7.830;2023-08-20T07:16:40;7.57;;;6.83;;
1685;SDS011;840;47.980;7.830;2023-08-20T07:19:07;8.50;;;7.70;;
1685;SDS011;840;47.980;7.830;2023-08-20T07:21:33;7.30;;;6.63;;
1685;SDS011;840;47.980;7.830;2023-08-20T07:24:00;7.17;;;6.47;;
1685;SDS011;840;47.980;7.830;2023-08-20T07:26:27;7.43;;;6.70;;
1685;SDS011;840;47.980;7.830;2023-08-20T07:28:55;6.93;;;6.33;;
1685;SDS011;840;47.980;7.830;2023-08-20T07:31:25;7.03;;;6.37;;
1685;SDS011;840;47.980;7.830;2023-08-20T07:33:53;7.30;;;6.60;;
1685;SDS011;840;47.980;7.830;2023-08-20T07:36:20;6.60;;;6.10;;
1685;SDS011;840;47.980;7.830;2023-08-20T07:38:48;7.87;;;7.27;;
1685;SDS011;840;47.980;7.830;2023-08-20T07:41:16;7.50;;;6.80;;
1685;SDS011;840;47.980;7.830;2023-08-20T07:43:44;8.23;;;7.50;;
1685;SDS011;840;47.980;7.830;2023-08-20T07:46:14;8.07;;;7.37;;
1685;SDS011;840;47.980;7.830;2023-08-20T07:48:41;9.60;;;6.80;;
1685;SDS011;840;47.980;7.830;2023-08-20T07:51:08;8.07;;;7.47;;
1685;SDS011;840;47.980;7.830;2023-08-20T07:53:35;7.90;;;7.20;;
1685;SDS011;840;47.980;7.830;2023-08-20T07:56:01;8.50;;;7.70;;
1685;SDS011;840;47.980;7.830;2023-08-20T07:58:28;7.80;;;7.10;;
1685;SDS011;840;47.980;7.830;2023-08-20T08:00:55;9.10;;;8.27;;
1685;SDS011;840;47.980;7.830;2023-08-20T08:03:24;9.60;;;7.93;;
1685;SDS011;840;47.980;7.830;2023-08-20T08:05:51;7.47;;;6.73;;
1685;SDS011;840;47.980;7.830;2023-08-20T08:08:19;8.17;;;7.47;;
1685;SDS011;840;47.980;7.830;2023-08-20T08:10:46;9.30;;;8.33;;
1685;SDS011;840;47.980;7.830;2023-08-20T08:13:14;13.47;;;7.87;;
1685;SDS011;840;47.980;7.830;2023-08-20T08:15:43;8.60;;;7.70;;
1685;SDS011;840;47.980;7.830;2023-08-20T08:18:11;10.20;;;7.30;;
1685;SDS011;840;47.980;7.830;2023-08-20T08:20:40;9.50;;;8.70;;
1685;SDS011;840;47.980;7.830;2023-08-20T08:23:07;8.50;;;7.43;;
1685;SDS011;840;47.980;7.830;2023-08-20T08:25:34;8.20;;;7.43;;
1685;SDS011;840;47.980;7.830;2023-08-20T08:28:02;8.67;;;8.00;;
1685;SDS011;840;47.980;7.830;2023-08-20T08:30:29;8.80;;;8.10;;
1685;SDS011;840;47.980;7.830;2023-08-20T08:32:56;9.40;;;8.50;;
1685;SDS011;840;47.980;7.830;2023-08-20T08:35:23;8.90;;;8.10;;
1685;SDS011;840;47.980;7.830;2023-08-20T08:37:51;10.90;;;8.83;;
1685;SDS011;840;47.980;7.830;2023-08-20T08:40:17;9.00;;;8.30;;
1685;SDS011;840;47.980;7.830;2023-08-20T08:42:45;8.40;;;7.77;;
1685;SDS011;840;47.980;7.830;2023-08-20T08:45:15;9.20;;;8.30;;
1685;SDS011;840;47.980;7.830;2023-08-20T08:47:44;7.93;;;7.33;;
1685;SDS011;840;47.980;7.830;2023-08-20T08:50:11;9.07;;;8.27;;
1685;SDS011;840;47.980;7.830;2023-08-20T08:52:38;11.27;;;9.23;;
1685;SDS011;840;47.980;7.830;2023-08-20T08:55:07;9.03;;;8.13;;
1685;SDS011;840;47.980;7.830;2023-08-20T08:57:34;9.50;;;8.70;;
1685;SDS011;840;47.980;7.830;2023-08-20T09:00:01;8.13;;;7.53;;
1685;SDS011;840;47.980;7.830;2023-08-20T09:02:29;8.67;;;7.93;;
1685;SDS011;840;47.980;7.830;2023-08-20T09:04:56;10.20;;;9.30;;
1685;SDS011;840;47.980;7.830;2023-08-20T09:07:23;9.43;;;8.73;;
1685;SDS011;840;47.980;7.830;2023-08-20T09:09:49;9.03;;;8.20;;
1685;SDS011;840;47.980;7.830;2023-08-20T09:12:18;9.80;;;8.47;;
1685;SDS011;840;47.980;7.830;2023-08-20T09:14:46;8.50;;;7.77;;
1685;SDS011;840;47.980;7.830;2023-08-20T09:17:14;12.67;;;8.10;;
1685;SDS011;840;47.980;7.830;2023-08-20T09:19:42;9.33;;;8.53;;
1685;SDS011;840;47.980;7.830;2023-08-20T09:22:10;9.20;;;8.37;;
1685;SDS011;840;47.980;7.830;2023-08-20T09:24:39;7.90;;;7.20;;
1685;SDS011;840;47.980;7.830;2023-08-20T09:27:07;7.80;;;7.10;;
1685;SDS011;840;47.980;7.830;2023-08-20T09:29:43;8.17;;;7.47;;
1685;SDS011;840;47.980;7.830;2023-08-20T09:32:13;7.60;;;7.00;;
1685;SDS011;840;47.980;7.830;2023-08-20T09:34:40;13.33;;;8.30;;
1685;SDS011;840;47.980;7.830;2023-08-20T09:37:08;8.00;;;7.30;;
1685;SDS011;840;47.980;7.830;2023-08-20T09:39:36;8.33;;;7.63;;
1685;SDS011;840;47.980;7.830;2023-08-20T09:42:04;7.90;;;7.30;;
1685;SDS011;840;47.980;7.830;2023-08-20T09:44:32;7.37;;;6.77;;
1685;SDS011;840;47.980;7.830;2023-08-20T09:47:05;7.60;;;6.67;;
1685;SDS011;840;47.980;7.830;2023-08-20T09:49:38;8.50;;;7.40;;
1685;SDS011;840;47.980;7.830;2023-08-20T09:52:06;8.10;;;7.40;;
1685;SDS011;840;47.980;7.830;2023-08-20T09:54:46;10.83;;;7.77;;
1685;SDS011;840;47.980;7.830;2023-08-20T09:57:23;10.47;;;7.30;;
1685;SDS011;840;47.980;7.830;2023-08-20T09:59:56;8.77;;;8.00;;
1685;SDS011;840;47.980;7.830;2023-08-20T10:02:26;7.63;;;7.07;;
1685;SDS011;840;47.980;7.830;2023-08-20T10:04:53;7.90;;;7.30;;
1685;SDS011;840;47.980;7.830;2023-08-20T10:07:19;8.00;;;7.27;;
1685;SDS011;840;47.980;7.830;2023-08-20T10:09:49;8.23;;;7.53;;
1685;SDS011;840;47.980;7.830;2023-08-20T10:12:17;9.80;;;7.10;;
1685;SDS011;840;47.980;7.830;2023-08-20T10:14:45;8.30;;;7.70;;
1685;SDS011;840;47.980;7.830;2023-08-20T10:17:12;8.20;;;7.60;;
1685;SDS011;840;47.980;7.830;2023-08-20T10:19:41;8.03;;;7.23;;
1685;SDS011;840;47.980;7.830;2023-08-20T10:22:08;9.73;;;6.90;;
1685;SDS011;840;47.980;7.830;2023-08-20T10:24:46;8.67;;;7.87;;
1685;SDS011;840;47.980;7.830;2023-08-20T10:27:23;7.53;;;6.93;;
1685;SDS011;840;47.980;7.830;2023-08-20T10:29:52;9.87;;;7.10;;
1685;SDS011;840;47.980;7.830;2023-08-20T10:32:19;8.90;;;8.20;;
1685;SDS011;840;47.980;7.830;2023-08-20T10:34:51;7.20;;;6.70;;
1685;SDS011;840;47.980;7.830;2023-08-20T10:37:25;8.70;;;7.87;;
1685;SDS011;840;47.980;7.830;2023-08-20T10:39:53;11.90;;;7.40;;
1685;SDS011;840;47.980;7.830;2023-08-20T10:42:27;9.80;;;6.77;;
1685;SDS011;840;47.980;7.830;2023-08-20T10:44:58;8.30;;;7.60;;
1685;SDS011;840;47.980;7.830;2023-08-20T10:47:26;10.03;;;7.40;;
1685;SDS011;840;47.980;7.830;2023-08-20T10:50:04;7.70;;;6.90;;
1685;SDS011;840;47.980;7.830;2023-08-20T10:52:33;7.73;;;7.13;;
1685;SDS011;840;47.980;7.830;2023-08-20T10:55:06;7.23;;;6.57;;
1685;SDS011;840;47.980;7.830;2023-08-20T10:57:34;13.10;;;6.20;;
1685;SDS011;840;47.980;7.830;2023-08-20T11:00:02;8.27;;;7.40;;
1685;SDS011;840;47.980;7.830;2023-08-20T11:02:36;7.10;;;6.50;;
1685;SDS011;840;47.980;7.830;2023-08-20T11:05:09;7.07;;;6.47;;
1685;SDS011;840;47.980;7.830;2023-08-20T11:07:42;7.50;;;6.83;;
1685;SDS011;840;47.980;7.830;2023-08-20T11:10:12;9.93;;;7.30;;
1685;SDS011;840;47.980;7.830;2023-08-20T11:12:39;11.60;;;6.53;;
1685;SDS011;840;47.980;7.830;2023-08-20T11:15:07;9.07;;;8.30;;
1685;SDS011;840;47.980;7.830;2023-08-20T11:17:39;7.83;;;7.20;;
1685;SDS011;840;47.980;7.830;2023-08-20T11:20:08;9.40;;;6.97;;
1685;SDS011;840;47.980;7.830;2023-08-20T11:22:36;7.33;;;6.73;;
1685;SDS011;840;47.980;7.830;2023-08-20T11:25:04;7.53;;;6.57;;
1685;SDS011;840;47.980;7.830;2023-08-20T11:27:31;7.43;;;6.77;;
1685;SDS011;840;47.980;7.830;2023-08-20T11:29:58;7.90;;;7.20;;
1685;SDS011;840;47.980;7.830;2023-08-20T11:32:25;7.60;;;7.00;;
1685;SDS011;840;47.980;7.830;2023-08-20T11:34:52;6.80;;;6.30;;
1685;SDS011;840;47.980;7.830;2023-08-20T11:37:21;7.60;;;6.90;;
1685;SDS011;840;47.980;7.830;2023-08-20T11:39:48;7.37;;;6.67;;
1685;SDS011;840;47.980;7.830;2023-08-20T11:42:15;6.90;;;6.27;;
1685;SDS011;840;47.980;7.830;2023-08-20T11:44:42;7.33;;;6.53;;
1685;SDS011;840;47.980;7.830;2023-08-20T11:47:13;6.97;;;6.37;;
1685;SDS011;840;47.980;7.830;2023-08-20T11:49:41;6.00;;;5.40;;
1685;SDS011;840;47.980;7.830;2023-08-20T11:52:08;7.87;;;7.20;;
1685;SDS011;840;47.980;7.830;2023-08-20T11:54:36;7.60;;;6.90;;
1685;SDS011;840;47.980;7.830;2023-08-20T11:57:03;7.83;;;7.20;;
1685;SDS011;840;47.980;7.830;2023-08-20T11:59:31;6.70;;;6.27;;
1685;SDS011;840;47.980;7.830;2023-08-20T12:01:59;7.30;;;6.60;;
1685;SDS011;840;47.980;7.830;2023-08-20T12:04:27;10.73;;;7.10;;
1685;SDS011;840;47.980;7.830;2023-08-20T12:07:04;8.80;;;8.00;;
1685;SDS011;840;47.980;7.830;2023-08-20T12:09:32;9.20;;;6.53;;
1685;SDS011;840;47.980;7.830;2023-08-20T12:12:00;6.90;;;6.33;;
1685;SDS011;840;47.980;7.830;2023-08-20T12:14:29;10.60;;;7.03;;
1685;SDS011;840;47.980;7.830;2023-08-20T12:16:55;6.97;;;6.47;;
1685;SDS011;840;47.980;7.830;2023-08-20T12:19:23;9.03;;;6.60;;
1685;SDS011;840;47.980;7.830;2023-08-20T12:21:50;9.67;;;8.07;;
1685;SDS011;840;47.980;7.830;2023-08-20T12:24:17;8.13;;;6.50;;
1685;SDS011;840;47.980;7.830;2023-08-20T12:26:45;10.73;;;8.00;;
1685;SDS011;840;47.980;7.830;2023-08-20T12:29:14;6.97;;;6.47;;
1685;SDS011;840;47.980;7.830;2023-08-20T12:31:41;7.90;;;6.63;;
1685;SDS011;840;47.980;7.830;2023-08-20T12:34:08;7.43;;;6.73;;
1685;SDS011;840;47.980;7.830;2023-08-20T12:36:35;7.40;;;6.27;;
1685;SDS011;840;47.980;7.830;2023-08-20T12:39:02;6.97;;;6.43;;
1685;SDS011;840;47.980;7.830;2023-08-20T12:41:29;7.57;;;6.80;;
1685;SDS011;840;47.980;7.830;2023-08-20T12:43:56;10.43;;;6.67;;
1685;SDS011;840;47.980;7.830;2023-08-20T12:46:25;7.37;;;6.70;;
1685;SDS011;840;47.980;7.830;2023-08-20T12:48:51;7.47;;;6.63;;
1685;SDS011;840;47.980;7.830;2023-08-20T12:51:18;6.67;;;6.17;;
1685;SDS011;840;47.980;7.830;2023-08-20T12:53:45;6.60;;;6.00;;
1685;SDS011;840;47.980;7.830;2023-08-20T12:56:12;6.77;;;6.17;;
1685;SDS011;840;47.980;7.830;2023-08-20T12:58:39;5.80;;;5.23;;
1685;SDS011;840;47.980;7.830;2023-08-20T13:01:06;7.50;;;5.53;;
1685;SDS011;840;47.980;7.830;2023-08-20T13:03:35;8.10;;;6.47;;
1685;SDS011;840;47.980;7.830;2023-08-20T13:06:03;5.60;;;5.20;;
1685;SDS011;840;47.980;7.830;2023-08-20T13:08:30;6.00;;;5.50;;
1685;SDS011;840;47.980;7.830;2023-08-20T13:10:58;5.63;;;5.10;;
1685;SDS011;840;47.980;7.830;2023-08-20T13:13:26;6.00;;;5.50;;
1685;SDS011;840;47.980;7.830;2023-08-20T13:15:53;5.90;;;5.43;;
1685;SDS011;840;47.980;7.830;2023-08-20T13:18:21;6.70;;;5.10;;
1685;SDS011;840;47.980;7.830;2023-08-20T13:20:51;5.80;;;5.23;;
1685;SDS011;840;47.980;7.830;2023-08-20T13:23:18;6.37;;;5.87;;
1685;SDS011;840;47.980;7.830;2023-08-20T13:25:45;5.90;;;5.40;;
1685;SDS011;840;47.980;7.830;2023-08-20T13:28:12;5.93;;;5.30;;
1685;SDS011;840;47.980;7.830;2023-08-20T13:30:39;6.33;;;5.80;;
1685;SDS011;840;47.980;7.830;2023-08-20T13:33:05;6.30;;;5.70;;
1685;SDS011;840;47.980;7.830;2023-08-20T13:35:33;5.97;;;5.37;;
1685;SDS011;840;47.980;7.830;2023-08-20T13:38:01;6.67;;;5.97;;
1685;SDS011;840;47.980;7.830;2023-08-20T13:40:29;8.00;;;5.57;;
1685;SDS011;840;47.980;7.830;2023-08-20T13:42:56;5.73;;;5.23;;
1685;SDS011;840;47.980;7.830;2023-08-20T13:45:22;5.80;;;5.37;;
1685;SDS011;840;47.980;7.830;2023-08-20T13:47:49;5.73;;;4.70;;
1685;SDS011;840;47.980;7.830;2023-08-20T13:50:16;5.63;;;4.67;;
1685;SDS011;840;47.980;7.830;2023-08-20T13:52:43;4.80;;;4.40;;
1685;SDS011;840;47.980;7.830;2023-08-20T13:55:11;7.00;;;5.90;;
1685;SDS011;840;47.980;7.830;2023-08-20T13:57:38;5.13;;;4.73;;
1685;SDS011;840;47.980;7.830;2023-08-20T14:00:05;6.33;;;5.30;;
1685;SDS011;840;47.980;7.830;2023-08-20T14:02:34;5.37;;;4.93;;
1685;SDS011;840;47.980;7.830;2023-08-20T14:05:01;5.57;;;5.07;;
1685;SDS011;840;47.980;7.830;2023-08-20T14:07:29;10.47;;;6.63;;
1685;SDS011;840;47.980;7.830;2023-08-20T14:09:56;6.07;;;5.53;;
1685;SDS011;840;47.980;7.830;2023-08-20T14:12:24;5.70;;;5.20;;
1685;SDS011;840;47.980;7.830;2023-08-20T14:14:50;6.03;;;5.53;;
1685;SDS011;840;47.980;7.830;2023-08-20T14:17:17;7.93;;;6.47;;
1685;SDS011;840;47.980;7.830;2023-08-20T14:19:44;5.73;;;5.23;;
1685;SDS011;840;47.980;7.830;2023-08-20T14:22:10;7.47;;;6.70;;
1685;SDS011;840;47.980;7.830;2023-08-20T14:24:37;5.63;;;5.13;;
1685;SDS011;840;47.980;7.830;2023-08-20T14:27:04;6.20;;;5.80;;
1685;SDS011;840;47.980;7.830;2023-08-20T14:29:34;7.30;;;5.20;;
1685;SDS011;840;47.980;7.830;2023-08-20T14:32:01;6.30;;;5.80;;
1685;SDS011;840;47.980;7.830;2023-08-20T14:34:28;6.20;;;5.70;;
1685;SDS011;840;47.980;7.830;2023-08-20T14:36:55;5.73;;;5.23;;
1685;SDS011;840;47.980;7.830;2023-08-20T14:39:22;7.13;;;5.87;;
1685;SDS011;840;47.980;7.830;2023-08-20T14:41:49;6.43;;;5.53;;
1685;SDS011;840;47.980;7.830;2023-08-20T14:44:16;5.63;;;5.13;;
1685;SDS011;840;47.980;7.830;2023-08-20T14:46:44;6.80;;;5.43;;
1685;SDS011;840;47.980;7.830;2023-08-20T14:49:11;6.63;;;6.10;;
1685;SDS011;840;47.980;7.830;2023-08-20T14:51:37;7.07;;;5.60;;
1685;SDS011;840;47.980;7.830;2023-08-20T14:54:04;5.33;;;4.93;;
1685;SDS011;840;47.980;7.830;2023-08-20T14:56:31;9.57;;;5.67;;
1685;SDS011;840;47.980;7.830;2023-08-20T14:58:58;6.03;;;5.43;;
1685;SDS011;840;47.980;7.830;2023-08-20T15:01:24;5.63;;;5.13;;
1685;SDS011;840;47.980;7.830;2023-08-20T15:03:53;8.73;;;6.10;;
1685;SDS011;840;47.980;7.830;2023-08-20T15:06:19;5.90;;;5.40;;
1685;SDS011;840;47.980;7.830;2023-08-20T15:08:49;6.27;;;5.63;;
1685;SDS011;840;47.980;7.830;2023-08-20T15:11:15;6.27;;;5.70;;
1685;SDS011;840;47.980;7.830;2023-08-20T15:13:42;6.07;;;5.10;;
1685;SDS011;840;47.980;7.830;2023-08-20T15:16:09;8.70;;;5.93;;
1685;SDS011;840;47.980;7.830;2023-08-20T15:18:35;6.67;;;6.07;;
1685;SDS011;840;47.980;7.830;2023-08-20T15:21:04;9.03;;;5.20;;
1685;SDS011;840;47.980;7.830;2023-08-20T15:23:30;5.83;;;5.07;;
1685;SDS011;840;47.980;7.830;2023-08-20T15:25:58;5.70;;;5.37;;
1685;SDS011;840;47.980;7.830;2023-08-20T15:28:25;11.33;;;4.97;;
1685;SDS011;840;47.980;7.830;2023-08-20T15:30:55;5.93;;;5.40;;
1685;SDS011;840;47.980;7.830;2023-08-20T15:33:21;6.90;;;5.00;;